Terminal Aerodrome Forecast
Issued by NWS

Home | Current Version | Previous Version | Text Only | Print | Product List | Glossary On
Versions: 1 2 3 4 5 6 7 8 9 10 11 12 13 14 15 16 17
638
FTUS46 KPDT 271904 AAA
TAFRDM
TAF AMD
KRDM 271904Z 2719/2818 27010G19KT P6SM SCT040 BKN060
     FM272200 31014G21KT P6SM VCSH SCT050 BKN070
     FM280300 27007KT P6SM SCT070 SCT200
     FM280700 17004KT P6SM SCT100 BKN200
     FM281600 16004KT P6SM SCT070 OVC140=

USA.gov is the U.S. government's official web portal to all federal, state and local government web resources and services.